This is the latest recevied weather packets stored in our database for station/object SK4BW-10. If no packets are shown the sender has not sent any weather packets the latest 10 day(s).
| Time | Temp. | Humidity | Pressure | Rain* | Wind** | Luminosity | Snow |
|---|---|---|---|---|---|---|---|
| 1778125553 | 2.22° C | 55% | 1011.8 hPa | - | - | - | - |
| 1778125544 | 2.22° C | 57% | 1011.7 hPa | - | - | - | - |
| 1778124654 | 2.22° C | 55% | 1011.6 hPa | - | - | - | - |
| 1778124643 | 2.22° C | 55% | 1011.8 hPa | - | - | - | - |
| 1778123753 | 2.22° C | 57% | 1011.7 hPa | - | - | - | - |
| 1778123743 | 2.22° C | 55% | 1011.6 hPa | - | - | - | - |
| 1778122854 | 2.22° C | 55% | 1011.5 hPa | - | - | - | - |
| 1778122842 | 2.22° C | 57% | 1011.7 hPa | - | - | - | - |
| 1778121945 | 2.22° C | 54% | 1011.4 hPa | - | - | - | - |
| 1778121942 | 2.22° C | 55% | 1011.5 hPa | - | - | - | - |
| 1778121044 | 2.78° C | 53% | 1011.5 hPa | - | - | - | - |
| 1778121041 | 2.22° C | 54% | 1011.4 hPa | - | - | - | - |
| 1778120144 | 3.33° C | 50% | 1011.4 hPa | - | - | - | - |
| 1778120140 | 2.78° C | 53% | 1011.5 hPa | - | - | - | - |
| 1778119243 | 3.89° C | 48% | 1011.3 hPa | - | - | - | - |
| 1778119240 | 3.33° C | 50% | 1011.4 hPa | - | - | - | - |
| 1778118342 | 5° C | 45% | 1011.3 hPa | - | - | - | - |
| 1778118339 | 3.89° C | 48% | 1011.3 hPa | - | - | - | - |
| 1778117441 | 4.44° C | 46% | 1011.3 hPa | - | - | - | - |
| 1778117438 | 5° C | 45% | 1011.3 hPa | - | - | - | - |
| 1778116541 | 4.44° C | 47% | 1011 hPa | - | - | - | - |
| 1778116537 | 4.44° C | 46% | 1011.3 hPa | - | - | - | - |
| 1778115639 | 5° C | 45% | 1011 hPa | - | - | - | - |
| 1778115636 | 4.44° C | 47% | 1011 hPa | - | - | - | - |
| 1778114739 | 4.44° C | 46% | 1011.1 hPa | - | - | - | - |
* Rain since midnight (hover to see other rain measurements)
** Current wind speed in m/s (hover to see current wind gust speed)